Time;durP1;ratioP1;P1;durP2;ratioP2;P2;SDS_P1;SDS_P2;PMS_P1;PMS_P2;Temp;Humidity;BMP_temperature;BMP_pressure;BME280_temperature;BME280_humidity;BME280_pressure;Samples;Min_cycle;Max_cycle;Signal;HPM_P1;HPM_P2
2021/11/03 00:00:48;;;;;;;28.42;19.35;;;29.10;90.30;;;;;;5166713;27;20025;-45
2021/11/03 00:03:15;;;;;;;29.30;17.85;;;29.10;90.30;;;;;;5165906;27;20042;-51
2021/11/03 00:05:46;;;;;;;24.33;17.77;;;29.10;90.30;;;;;;5166471;27;20014;-45
2021/11/03 00:08:20;;;;;;;26.35;18.60;;;29.10;90.30;;;;;;5166194;27;20026;-51
2021/11/03 00:10:48;;;;;;;23.95;19.42;;;29.00;90.20;;;;;;5147706;27;20258;-46
2021/11/03 00:13:17;;;;;;;23.38;16.83;;;29.00;90.10;;;;;;5166175;27;20036;-52
2021/11/03 00:15:44;;;;;;;21.25;14.93;;;29.00;90.10;;;;;;5166073;27;20019;-46
2021/11/03 00:18:11;;;;;;;20.70;13.77;;;29.00;90.00;;;;;;5166250;27;20087;-48
2021/11/03 00:20:38;;;;;;;24.90;13.23;;;29.00;90.00;;;;;;5166162;27;20011;-52
2021/11/03 00:23:05;;;;;;;20.13;11.75;;;29.00;90.00;;;;;;5165792;27;20029;-49
2021/11/03 00:25:32;;;;;;;15.88;11.57;;;29.00;89.80;;;;;;5166201;27;20023;-46
2021/11/03 00:27:59;;;;;;;15.82;10.40;;;29.00;89.80;;;;;;5165884;27;20063;-48
2021/11/03 00:30:29;;;;;;;14.75;11.10;;;29.00;89.70;;;;;;5165785;27;20019;-49
2021/11/03 00:32:56;;;;;;;21.88;14.57;;;28.90;89.60;;;;;;5146444;27;20034;-47
2021/11/03 00:35:22;;;;;;;20.85;13.68;;;28.90;89.30;;;;;;5147381;27;20054;-52
2021/11/03 00:37:49;;;;;;;18.48;12.35;;;28.90;89.20;;;;;;5165288;27;20022;-52
2021/11/03 00:40:16;;;;;;;13.45;10.98;;;28.90;89.20;;;;;;5166121;27;20090;-48
2021/11/03 00:42:42;;;;;;;13.68;8.98;;;28.90;89.20;;;;;;5165743;27;20303;-46
2021/11/03 00:45:09;;;;;;;17.08;9.20;;;28.90;89.80;;;;;;5165797;27;20031;-45
2021/11/03 00:47:36;;;;;;;12.80;8.60;;;28.90;89.20;;;;;;5165383;27;20076;-52
2021/11/03 00:50:04;;;;;;;10.43;7.10;;;28.90;89.20;;;;;;5165732;27;20034;-47
2021/11/03 00:52:31;;;;;;;12.93;7.10;;;28.90;89.20;;;;;;5165645;27;20303;-48
2021/11/03 00:55:01;;;;;;;11.88;7.00;;;28.90;89.20;;;;;;5165573;27;20049;-48
2021/11/03 00:57:28;;;;;;;11.88;5.90;;;28.90;89.20;;;;;;5147927;27;20030;-50
2021/11/03 00:59:55;;;;;;;10.38;5.70;;;28.80;89.30;;;;;;5146890;27;20021;-48
2021/11/03 01:02:21;;;;;;;8.70;5.55;;;28.80;89.30;;;;;;5165474;27;20299;-49
2021/11/03 01:04:48;;;;;;;10.20;6.20;;;28.80;89.30;;;;;;5165539;27;20025;-46
2021/11/03 01:07:15;;;;;;;9.80;5.35;;;28.90;89.30;;;;;;5168780;27;20315;-48
2021/11/03 01:09:42;;;;;;;10.93;5.63;;;28.80;89.30;;;;;;5169725;27;20022;-52
2021/11/03 01:12:10;;;;;;;7.20;5.65;;;28.80;89.20;;;;;;5169719;27;20087;-47
2021/11/03 01:14:37;;;;;;;10.82;5.70;;;28.80;89.00;;;;;;5169100;27;20015;-46
2021/11/03 01:17:05;;;;;;;10.57;5.50;;;28.80;89.00;;;;;;5169488;27;20021;-46
2021/11/03 01:19:32;;;;;;;8.70;5.15;;;28.80;89.00;;;;;;5169124;27;20015;-48
2021/11/03 01:21:59;;;;;;;9.23;4.80;;;28.80;88.90;;;;;;5169120;27;20046;-46
2021/11/03 01:24:26;;;;;;;8.88;4.68;;;28.80;88.80;;;;;;5169136;27;20049;-49
2021/11/03 01:26:52;;;;;;;9.02;4.47;;;28.80;88.90;;;;;;5169281;27;20026;-54
2021/11/03 01:29:19;;;;;;;6.70;4.75;;;28.80;88.90;;;;;;5169102;27;20015;-49
2021/11/03 01:31:46;;;;;;;6.28;3.85;;;28.80;88.90;;;;;;5169304;27;20022;-51
2021/11/03 01:34:12;;;;;;;8.65;4.30;;;28.80;88.90;;;;;;5168985;27;20019;-50
2021/11/03 01:36:39;;;;;;;5.88;4.00;;;28.80;88.90;;;;;;5150380;27;20027;-51
2021/11/03 01:39:07;;;;;;;7.30;3.85;;;28.80;88.90;;;;;;5168981;27;20091;-51
2021/11/03 01:41:36;;;;;;;8.10;3.72;;;28.80;88.90;;;;;;5169552;27;20083;-48
2021/11/03 01:44:09;;;;;;;6.43;3.42;;;28.70;88.80;;;;;;5149801;27;20335;-49
2021/11/03 01:46:58;;;;;;;10.85;4.25;;;28.70;88.80;;;;;;5169340;27;20033;-51
2021/11/03 01:49:29;;;;;;;10.27;3.92;;;28.70;88.80;;;;;;5116236;27;20079;-46
2021/11/03 01:52:04;;;;;;;8.07;4.05;;;28.70;88.80;;;;;;5168854;27;20023;-50
2021/11/03 01:54:36;;;;;;;11.23;4.40;;;28.70;89.00;;;;;;5168462;27;20019;-50
2021/11/03 01:57:08;;;;;;;11.88;4.00;;;28.70;89.40;;;;;;5168774;27;20269;-51
2021/11/03 01:59:39;;;;;;;7.87;3.60;;;28.70;89.00;;;;;;5168458;27;20049;-56
2021/11/03 02:02:07;;;;;;;9.02;3.95;;;28.70;89.00;;;;;;5168448;27;20010;-50
2021/11/03 02:04:35;;;;;;;10.90;3.30;;;28.70;89.00;;;;;;5168755;27;20014;-54
2021/11/03 02:07:06;;;;;;;10.30;3.83;;;28.70;89.10;;;;;;5168780;27;20045;-48
2021/11/03 02:09:33;;;;;;;8.48;3.88;;;28.70;89.10;;;;;;5168135;27;20029;-53
2021/11/03 02:12:00;;;;;;;12.73;5.57;;;28.70;89.10;;;;;;5168531;27;20326;-51
2021/11/03 02:14:26;;;;;;;7.18;5.15;;;28.70;89.10;;;;;;5167940;27;20086;-46
2021/11/03 02:16:53;;;;;;;11.85;6.00;;;28.70;89.00;;;;;;5167746;27;20082;-48
2021/11/03 02:19:35;;;;;;;9.73;5.03;;;28.70;88.90;;;;;;5149969;27;20018;-50
2021/11/03 02:22:22;;;;;;;9.07;5.38;;;28.60;88.70;;;;;;5168181;27;20026;-47
2021/11/03 02:25:08;;;;;;;12.68;5.03;;;28.60;88.70;;;;;;5153770;27;20027;-47
2021/11/03 02:27:40;;;;;;;10.05;4.18;;;28.60;88.60;;;;;;5149697;27;20245;-47
2021/11/03 02:30:10;;;;;;;7.40;4.30;;;28.60;88.40;;;;;;5168113;27;20031;-45
2021/11/03 02:32:40;;;;;;;6.90;3.80;;;28.60;88.30;;;;;;5167534;27;20022;-47
2021/11/03 02:35:07;;;;;;;8.10;3.90;;;28.60;88.30;;;;;;5168037;27;20026;-45
2021/11/03 02:37:51;;;;;;;5.25;3.58;;;28.60;88.30;;;;;;5167759;27;20394;-48
2021/11/03 02:40:25;;;;;;;6.90;3.50;;;28.60;88.20;;;;;;5167667;27;20067;-46
2021/11/03 02:42:58;;;;;;;7.78;3.53;;;28.60;88.20;;;;;;5167666;27;20355;-47
2021/11/03 02:45:41;;;;;;;7.72;3.60;;;28.60;88.30;;;;;;5167826;27;20042;-46
2021/11/03 02:48:08;;;;;;;6.68;3.25;;;28.60;88.20;;;;;;5167604;27;20038;-48
2021/11/03 02:50:36;;;;;;;8.98;3.67;;;28.60;88.40;;;;;;5167653;27;20022;-49
2021/11/03 02:53:03;;;;;;;7.97;3.40;;;28.60;88.40;;;;;;5167562;27;20015;-47
2021/11/03 02:55:30;;;;;;;5.50;3.60;;;28.60;88.40;;;;;;5167857;27;20026;-47
2021/11/03 02:57:56;;;;;;;7.93;3.78;;;28.60;88.40;;;;;;5167301;27;20018;-49
2021/11/03 03:00:25;;;;;;;8.65;3.85;;;28.60;88.40;;;;;;5167369;27;20281;-49
2021/11/03 03:02:52;;;;;;;6.70;3.95;;;28.60;88.50;;;;;;5167372;27;20013;-47
2021/11/03 03:05:19;;;;;;;6.75;3.70;;;28.50;88.50;;;;;;5167347;27;20199;-47
2021/11/03 03:07:45;;;;;;;10.32;4.78;;;28.50;88.60;;;;;;5167486;27;20030;-45
2021/11/03 03:10:12;;;;;;;8.45;4.55;;;28.50;89.00;;;;;;5167363;27;20067;-49
2021/11/03 03:12:39;;;;;;;7.38;3.80;;;28.50;89.10;;;;;;5167222;27;20025;-47
2021/11/03 03:15:06;;;;;;;11.77;4.30;;;28.50;89.10;;;;;;5167548;27;20037;-48
2021/11/03 03:17:33;;;;;;;10.13;4.25;;;28.50;89.20;;;;;;5167123;27;20046;-50
2021/11/03 03:20:00;;;;;;;7.97;4.18;;;28.50;89.30;;;;;;5167043;27;20025;-46
2021/11/03 03:22:26;;;;;;;8.25;4.15;;;28.50;89.40;;;;;;5166866;27;20054;-46
2021/11/03 03:24:53;;;;;;;5.75;3.90;;;28.50;89.40;;;;;;5167211;27;20201;-48
2021/11/03 03:27:20;;;;;;;5.63;4.18;;;28.40;89.40;;;;;;5166947;27;20011;-46
2021/11/03 03:29:46;;;;;;;6.38;4.40;;;28.50;89.40;;;;;;5166043;27;20034;-48
2021/11/03 03:32:13;;;;;;;8.82;4.90;;;28.50;89.30;;;;;;5166722;27;20023;-44
2021/11/03 03:34:40;;;;;;;9.40;5.15;;;28.50;89.30;;;;;;5147913;27;20071;-45
2021/11/03 03:37:08;;;;;;;8.65;5.07;;;28.50;89.10;;;;;;5166580;27;20023;-50
2021/11/03 03:39:35;;;;;;;8.93;4.85;;;28.50;89.10;;;;;;5166409;27;20019;-48
2021/11/03 03:42:16;;;;;;;11.57;5.47;;;28.40;88.90;;;;;;5166317;27;20023;-46
2021/11/03 03:44:43;;;;;;;9.90;5.50;;;28.50;88.90;;;;;;5165887;27;20045;-45
2021/11/03 03:47:11;;;;;;;10.27;5.93;;;28.40;88.70;;;;;;5166419;27;20029;-51
2021/11/03 03:49:38;;;;;;;9.52;5.38;;;28.40;88.60;;;;;;5166159;27;20026;-45
2021/11/03 03:52:05;;;;;;;9.05;5.60;;;28.40;88.50;;;;;;5166267;27;20206;-49
2021/11/03 03:54:32;;;;;;;8.75;5.50;;;28.40;88.40;;;;;;5166060;27;20082;-53
2021/11/03 03:56:59;;;;;;;8.65;5.10;;;28.40;88.40;;;;;;5166337;27;20030;-53
2021/11/03 03:59:26;;;;;;;8.20;5.45;;;28.40;88.40;;;;;;5147697;27;20237;-47
2021/11/03 04:01:52;;;;;;;8.48;5.72;;;28.40;88.30;;;;;;5147591;27;20219;-49
2021/11/03 04:04:19;;;;;;;8.18;5.20;;;28.40;88.80;;;;;;5166310;27;20015;-47
2021/11/03 04:06:46;;;;;;;8.35;5.45;;;28.40;88.20;;;;;;5166227;27;20311;-48
2021/11/03 04:09:13;;;;;;;8.82;5.95;;;28.40;88.10;;;;;;5166111;27;20029;-45
2021/11/03 04:11:40;;;;;;;9.75;5.38;;;28.40;88.10;;;;;;5166424;27;20019;-46
2021/11/03 04:14:07;;;;;;;8.80;4.95;;;28.40;88.00;;;;;;5166198;27;20025;-45
2021/11/03 04:16:34;;;;;;;10.07;5.40;;;28.40;87.90;;;;;;5166391;27;20287;-44
2021/11/03 04:19:01;;;;;;;8.48;5.50;;;28.40;87.90;;;;;;5165573;27;20078;-45
2021/11/03 04:21:29;;;;;;;9.30;5.55;;;28.30;87.70;;;;;;5165876;27;20022;-48
2021/11/03 04:23:55;;;;;;;9.77;5.15;;;28.30;87.70;;;;;;5165587;27;20018;-52
2021/11/03 04:26:45;;;;;;;6.63;5.20;;;28.30;87.70;;;;;;5165974;27;20029;-46
2021/11/03 04:29:12;;;;;;;6.35;5.22;;;28.30;87.80;;;;;;5165682;27;20026;-47
2021/11/03 04:31:39;;;;;;;8.23;4.70;;;28.30;87.80;;;;;;5166220;27;20019;-44
2021/11/03 04:34:06;;;;;;;7.05;5.30;;;28.30;87.90;;;;;;5165533;27;20034;-50
2021/11/03 04:36:33;;;;;;;8.05;5.00;;;28.30;87.90;;;;;;5146993;27;20072;-46
2021/11/03 04:39:04;;;;;;;8.32;5.07;;;28.30;87.90;;;;;;5165293;27;20030;-49
2021/11/03 04:41:30;;;;;;;6.10;4.40;;;28.20;87.90;;;;;;5172476;27;20019;-51
2021/11/03 04:43:57;;;;;;;7.55;5.03;;;28.20;87.90;;;;;;5172074;27;20042;-46
2021/11/03 04:46:24;;;;;;;9.32;5.57;;;28.20;88.00;;;;;;5172910;27;20194;-46
2021/11/03 04:48:51;;;;;;;9.23;5.18;;;28.20;88.10;;;;;;5172440;27;20033;-46
2021/11/03 04:51:18;;;;;;;9.63;5.60;;;28.20;88.20;;;;;;5172838;27;20046;-47
2021/11/03 04:53:45;;;;;;;10.55;5.63;;;28.20;88.20;;;;;;5172491;27;20022;-57
2021/11/03 04:56:13;;;;;;;8.05;4.95;;;28.20;88.30;;;;;;5172610;27;20041;-47
2021/11/03 04:58:40;;;;;;;8.73;5.15;;;28.20;88.30;;;;;;5172202;27;20077;-52
2021/11/03 05:01:08;;;;;;;6.68;4.68;;;28.10;88.20;;;;;;5172585;27;20313;-46
2021/11/03 05:03:34;;;;;;;8.60;5.43;;;28.20;88.30;;;;;;5172477;27;20026;-45
2021/11/03 05:06:02;;;;;;;13.40;5.45;;;28.10;88.20;;;;;;5172915;27;20013;-47
2021/11/03 05:08:29;;;;;;;7.32;5.53;;;28.10;88.20;;;;;;5172156;27;20307;-54
2021/11/03 05:10:56;;;;;;;7.75;5.45;;;28.20;88.20;;;;;;5172639;27;20046;-50
2021/11/03 05:13:23;;;;;;;8.43;4.97;;;28.20;88.10;;;;;;5172204;27;20019;-48
2021/11/03 05:15:51;;;;;;;8.38;5.35;;;28.10;88.00;;;;;;5172411;27;20077;-47
2021/11/03 05:18:19;;;;;;;9.82;5.43;;;28.20;87.90;;;;;;5172210;27;20023;-48
2021/11/03 05:20:46;;;;;;;7.82;5.53;;;28.10;87.80;;;;;;5172191;27;20014;-48
2021/11/03 05:23:13;;;;;;;12.35;5.72;;;28.10;87.80;;;;;;5172594;27;20063;-50
2021/11/03 05:25:39;;;;;;;8.27;5.32;;;28.10;87.70;;;;;;5172749;27;20237;-49
2021/11/03 05:28:07;;;;;;;6.22;5.20;;;28.10;87.70;;;;;;5172722;27;20027;-47
2021/11/03 05:30:34;;;;;;;9.85;5.35;;;28.10;87.80;;;;;;5172301;27;20033;-48
2021/11/03 05:33:01;;;;;;;7.88;5.65;;;28.10;87.70;;;;;;5171969;27;20019;-50
2021/11/03 05:35:28;;;;;;;9.23;5.35;;;28.10;87.70;;;;;;5172179;27;20027;-46
2021/11/03 05:37:55;;;;;;;8.45;5.65;;;28.10;87.70;;;;;;5172179;27;20019;-51
2021/11/03 05:40:26;;;;;;;11.18;5.55;;;28.10;87.70;;;;;;5172160;27;20075;-49
2021/11/03 05:42:52;;;;;;;8.80;6.18;;;28.00;87.60;;;;;;5172171;27;20018;-49
2021/11/03 05:45:20;;;;;;;8.30;5.93;;;28.10;87.70;;;;;;5171734;27;20327;-51
2021/11/03 05:47:47;;;;;;;8.45;5.95;;;28.00;87.70;;;;;;5172626;27;20045;-48
2021/11/03 05:50:22;;;;;;;8.35;5.53;;;28.10;87.60;;;;;;5172013;27;20192;-45
2021/11/03 05:52:49;;;;;;;8.68;5.78;;;28.00;87.50;;;;;;5168456;27;20029;-47
2021/11/03 05:55:16;;;;;;;10.40;6.10;;;28.00;87.40;;;;;;5168544;27;20337;-49
2021/11/03 05:57:44;;;;;;;9.85;5.60;;;28.00;87.50;;;;;;5168711;27;20023;-50
2021/11/03 06:00:19;;;;;;;8.82;6.70;;;28.00;87.50;;;;;;5168463;27;20300;-48
2021/11/03 06:02:45;;;;;;;9.10;6.13;;;28.00;87.40;;;;;;5168605;27;20063;-48
2021/11/03 06:05:14;;;;;;;9.05;5.53;;;28.00;87.40;;;;;;5168402;27;20017;-49
2021/11/03 06:07:52;;;;;;;8.43;5.93;;;28.00;87.40;;;;;;5168747;27;20360;-46
2021/11/03 06:10:32;;;;;;;8.25;5.60;;;28.00;87.50;;;;;;5168320;27;20018;-46
2021/11/03 06:12:59;;;;;;;14.25;5.85;;;28.00;87.50;;;;;;5168602;27;20033;-46
2021/11/03 06:15:30;;;;;;;12.07;6.10;;;28.00;87.50;;;;;;5168271;27;20026;-45
2021/11/03 06:17:57;;;;;;;24.57;7.40;;;27.90;87.50;;;;;;5168319;27;20075;-48
2021/11/03 06:20:24;;;;;;;13.55;5.68;;;27.90;87.60;;;;;;5168150;27;20211;-45
2021/11/03 06:22:51;;;;;;;12.43;5.70;;;27.90;87.60;;;;;;5168542;27;20337;-46
2021/11/03 06:25:18;;;;;;;11.25;6.28;;;27.90;87.70;;;;;;5167965;27;20082;-53
2021/11/03 06:27:46;;;;;;;12.52;5.97;;;28.00;87.80;;;;;;5168327;27;20026;-47
2021/11/03 06:30:17;;;;;;;11.32;6.53;;;27.90;87.80;;;;;;5167926;27;20021;-51
2021/11/03 06:32:44;;;;;;;10.18;6.45;;;27.90;87.90;;;;;;5168464;27;20042;-44
2021/11/03 06:35:12;;;;;;;9.82;6.15;;;27.90;88.00;;;;;;5167999;27;20079;-49
2021/11/03 06:37:39;;;;;;;10.52;6.30;;;27.90;88.00;;;;;;5167836;27;20063;-47
2021/11/03 06:40:09;;;;;;;10.13;6.22;;;27.90;88.00;;;;;;5168146;27;20118;-49
2021/11/03 06:42:38;;;;;;;11.23;6.05;;;27.90;88.10;;;;;;5167786;27;20018;-43
2021/11/03 06:45:06;;;;;;;8.98;5.82;;;27.90;88.10;;;;;;5149629;27;20063;-48
2021/11/03 06:47:33;;;;;;;7.50;5.53;;;27.90;88.10;;;;;;5167624;27;20025;-44
2021/11/03 06:50:00;;;;;;;8.68;5.80;;;27.90;88.70;;;;;;5168077;27;20089;-44
2021/11/03 06:52:27;;;;;;;9.15;5.63;;;27.90;88.10;;;;;;5167385;27;20355;-47
2021/11/03 06:54:54;;;;;;;6.50;5.32;;;27.90;88.10;;;;;;5167882;27;20068;-44
2021/11/03 06:57:20;;;;;;;8.10;5.82;;;27.90;88.10;;;;;;5167231;27;20223;-48
2021/11/03 06:59:48;;;;;;;10.52;6.07;;;27.80;88.10;;;;;;5167615;27;20029;-44
2021/11/03 07:02:18;;;;;;;7.85;5.88;;;27.80;88.20;;;;;;5167392;27;20086;-44
2021/11/03 07:04:44;;;;;;;8.70;5.75;;;27.90;88.20;;;;;;5166390;27;20022;-46
2021/11/03 07:07:12;;;;;;;7.72;5.82;;;27.90;88.20;;;;;;5167165;27;20036;-48
2021/11/03 07:09:38;;;;;;;12.57;5.55;;;27.90;88.30;;;;;;5167603;27;20025;-49
2021/11/03 07:12:05;;;;;;;10.00;5.60;;;27.80;88.30;;;;;;5167307;27;20022;-45
2021/11/03 07:14:32;;;;;;;8.48;4.60;;;27.80;88.30;;;;;;5167122;27;20026;-50
2021/11/03 07:16:59;;;;;;;7.97;5.43;;;27.80;88.40;;;;;;5166933;27;20026;-45
2021/11/03 07:19:25;;;;;;;7.10;5.57;;;27.80;88.40;;;;;;5167021;27;20287;-47
2021/11/03 07:21:52;;;;;;;9.90;5.40;;;27.80;88.40;;;;;;5166864;27;20085;-48
2021/11/03 07:24:19;;;;;;;7.93;5.40;;;27.80;88.50;;;;;;5167345;27;20103;-51
2021/11/03 07:26:46;;;;;;;7.57;4.90;;;27.80;88.50;;;;;;5167032;27;20302;-49
2021/11/03 07:29:12;;;;;;;7.57;5.05;;;27.80;88.40;;;;;;5166745;27;20049;-52
2021/11/03 07:31:39;;;;;;;6.53;4.93;;;27.80;88.60;;;;;;5167004;27;20057;-47
2021/11/03 07:34:06;;;;;;;6.45;4.55;;;27.80;88.60;;;;;;5166730;27;20262;-52
2021/11/03 07:36:33;;;;;;;9.30;4.80;;;27.80;88.60;;;;;;5166652;27;20030;-49
2021/11/03 07:39:00;;;;;;;5.45;4.50;;;27.80;88.70;;;;;;5166549;27;20199;-51
2021/11/03 07:41:26;;;;;;;8.38;4.80;;;27.80;88.70;;;;;;5166559;27;20017;-51
2021/11/03 07:43:53;;;;;;;8.02;4.85;;;27.80;88.70;;;;;;5166504;27;20091;-47
2021/11/03 07:46:21;;;;;;;7.05;4.80;;;27.80;88.70;;;;;;5166446;27;20015;-55
2021/11/03 07:48:48;;;;;;;5.88;4.38;;;27.80;88.70;;;;;;5166591;27;20072;-50
2021/11/03 07:51:17;;;;;;;5.88;4.35;;;27.80;88.70;;;;;;5166477;27;20019;-46
2021/11/03 07:53:45;;;;;;;4.75;4.10;;;27.80;88.80;;;;;;5166064;27;20030;-48
2021/11/03 07:56:20;;;;;;;5.15;4.07;;;27.80;88.80;;;;;;5166240;27;20029;-48
2021/11/03 07:58:49;;;;;;;7.38;4.45;;;27.80;88.80;;;;;;5166000;27;20183;-48
2021/11/03 08:01:17;;;;;;;6.68;4.28;;;27.70;88.70;;;;;;5166311;27;20011;-51
2021/11/03 08:03:44;;;;;;;7.93;4.32;;;27.70;88.80;;;;;;5165968;27;20022;-52
2021/11/03 08:06:11;;;;;;;7.25;4.30;;;27.70;88.80;;;;;;5166111;27;20022;-47
2021/11/03 08:09:02;;;;;;;7.20;4.15;;;27.70;88.80;;;;;;5166129;27;20015;-49
2021/11/03 08:11:34;;;;;;;5.55;3.83;;;27.70;88.80;;;;;;5166091;27;20308;-52
2021/11/03 08:14:03;;;;;;;6.22;4.25;;;27.70;88.90;;;;;;5165631;27;20030;-50
2021/11/03 08:16:42;;;;;;;6.63;4.15;;;27.70;88.90;;;;;;5165711;27;20248;-50
2021/11/03 08:19:09;;;;;;;10.68;4.43;;;27.70;89.00;;;;;;5165714;27;20056;-46
2021/11/03 08:21:35;;;;;;;9.88;4.70;;;27.70;89.00;;;;;;5165917;27;20207;-49
2021/11/03 08:24:02;;;;;;;9.02;4.05;;;27.70;89.00;;;;;;5165915;27;20027;-45
2021/11/03 08:26:29;;;;;;;7.10;4.18;;;27.70;89.00;;;;;;5165910;27;20025;-45
2021/11/03 08:28:55;;;;;;;10.70;4.65;;;27.70;89.00;;;;;;5165831;27;20027;-46
2021/11/03 08:31:22;;;;;;;6.97;4.05;;;27.70;89.10;;;;;;5165873;27;20044;-49
2021/11/03 08:33:49;;;;;;;8.93;4.15;;;27.70;89.10;;;;;;5166345;27;20034;-56
2021/11/03 08:36:18;;;;;;;6.18;4.18;;;27.70;89.20;;;;;;5148231;27;20029;-48
2021/11/03 08:38:49;;;;;;;7.15;4.18;;;27.70;89.20;;;;;;5166007;27;20237;-45
2021/11/03 08:41:15;;;;;;;7.13;4.20;;;27.70;89.20;;;;;;5166292;27;20327;-47
2021/11/03 08:43:43;;;;;;;7.45;4.07;;;27.70;89.20;;;;;;5165548;27;20050;-48
2021/11/03 08:46:10;;;;;;;7.30;4.35;;;27.70;89.20;;;;;;5165397;27;20022;-45
2021/11/03 08:48:37;;;;;;;5.93;3.75;;;27.70;89.20;;;;;;5165383;27;20203;-44
2021/11/03 08:51:04;;;;;;;11.10;4.72;;;27.70;89.30;;;;;;5165752;27;20055;-45
2021/11/03 08:53:31;;;;;;;7.50;4.05;;;27.70;89.40;;;;;;5165129;27;20022;-45
2021/11/03 08:55:57;;;;;;;6.18;3.70;;;27.70;89.50;;;;;;5165661;27;20015;-45
2021/11/03 08:58:27;;;;;;;7.63;4.40;;;27.60;89.50;;;;;;5165511;27;20014;-45
2021/11/03 09:00:56;;;;;;;5.45;4.13;;;27.60;89.60;;;;;;5165485;27;20025;-45
2021/11/03 09:03:22;;;;;;;7.90;3.90;;;27.60;89.50;;;;;;5165597;27;20010;-49
2021/11/03 09:05:50;;;;;;;8.38;4.30;;;27.60;89.50;;;;;;5165325;27;20129;-45
2021/11/03 09:08:18;;;;;;;6.47;4.15;;;27.60;89.50;;;;;;5165286;27;20038;-48
2021/11/03 09:10:48;;;;;;;6.57;4.20;;;27.60;89.60;;;;;;5165666;27;20245;-47
2021/11/03 09:13:22;;;;;;;6.78;4.00;;;27.60;89.70;;;;;;5165426;27;20202;-48
2021/11/03 09:15:49;;;;;;;7.72;4.13;;;27.60;89.70;;;;;;5165251;27;20031;-49
2021/11/03 09:18:17;;;;;;;9.27;3.97;;;27.60;89.70;;;;;;5165180;27;20316;-48
2021/11/03 09:20:45;;;;;;;5.70;3.83;;;27.60;89.70;;;;;;5165747;27;20202;-47
2021/11/03 09:23:13;;;;;;;9.00;4.28;;;27.60;89.70;;;;;;5165180;27;20015;-50
2021/11/03 09:25:40;;;;;;;9.65;4.07;;;27.60;89.70;;;;;;5165657;27;20026;-47
2021/11/03 09:28:07;;;;;;;6.05;4.03;;;27.60;89.70;;;;;;5168178;27;20019;-47
2021/11/03 09:30:35;;;;;;;8.38;4.43;;;27.60;89.70;;;;;;5169537;27;20051;-51
2021/11/03 09:33:04;;;;;;;10.65;4.78;;;27.50;89.60;;;;;;5168966;27;20067;-53
2021/11/03 09:35:36;;;;;;;5.93;4.32;;;27.60;89.70;;;;;;5169267;27;20026;-47
2021/11/03 09:38:05;;;;;;;;;;;27.60;89.80;;;;;;5169537;27;20014;-55
2021/11/03 09:40:54;;;;;;;9.45;4.22;;;27.60;89.90;;;;;;5169548;27;19907;-46
2021/11/03 09:43:34;;;;;;;7.65;4.13;;;27.50;89.90;;;;;;5168034;27;20030;-47
2021/11/03 09:46:13;;;;;;;8.57;4.50;;;27.60;90.00;;;;;;5168944;27;20123;-49
2021/11/03 09:48:40;;;;;;;6.75;4.18;;;27.60;90.00;;;;;;5168935;27;20018;-46
2021/11/03 09:51:16;;;;;;;7.57;4.70;;;27.60;90.00;;;;;;5168625;27;20027;-50
2021/11/03 09:53:53;;;;;;;7.93;4.25;;;27.50;90.00;;;;;;5168777;27;20082;-47
2021/11/03 09:56:24;;;;;;;5.75;3.88;;;27.50;90.00;;;;;;5168575;27;20025;-47
2021/11/03 09:59:27;;;;;;;7.80;4.20;;;27.50;90.00;;;;;;5168515;27;20026;-48
2021/11/03 10:02:14;;;;;;;;;;;27.50;90.10;;;;;;5164019;27;20342;-47
2021/11/03 10:04:58;;;;;;;8.23;4.40;;;27.50;90.10;;;;;;5168677;27;19959;-47
2021/11/03 10:07:32;;;;;;;6.28;4.13;;;27.50;90.10;;;;;;5168706;27;20241;-48
2021/11/03 10:10:19;;;;;;;8.07;4.38;;;27.50;90.20;;;;;;5168775;27;20333;-48
2021/11/03 10:12:46;;;;;;;7.38;4.70;;;27.50;90.20;;;;;;5168366;27;20040;-53
2021/11/03 10:15:20;;;;;;;6.80;4.50;;;27.50;90.20;;;;;;5168751;27;20241;-48
2021/11/03 10:18:09;;;;;;;7.35;4.55;;;27.50;90.20;;;;;;5168110;27;20033;-51
2021/11/03 10:20:41;;;;;;;7.68;4.68;;;27.50;90.30;;;;;;5168719;27;20236;-47
2021/11/03 10:23:21;;;;;;;8.93;4.55;;;27.50;90.20;;;;;;5168075;27;20027;-48
2021/11/03 10:26:09;;;;;;;8.55;4.55;;;27.50;90.30;;;;;;5168044;27;20260;-51
2021/11/03 10:28:40;;;;;;;5.07;4.40;;;27.50;90.30;;;;;;5167773;27;20248;-50
2021/11/03 10:31:29;;;;;;;7.25;4.60;;;27.50;90.30;;;;;;5167809;27;20054;-50
2021/11/03 10:34:18;;;;;;;7.32;4.60;;;27.50;90.30;;;;;;5167481;27;20073;-47
2021/11/03 10:36:47;;;;;;;7.00;4.90;;;27.50;90.30;;;;;;5151509;27;20057;-52
2021/11/03 10:39:20;;;;;;;8.68;4.63;;;27.40;90.30;;;;;;5167475;27;20021;-54
2021/11/03 10:42:00;;;;;;;8.45;4.93;;;27.50;90.30;;;;;;5167784;27;20346;-46
2021/11/03 10:44:31;;;;;;;7.47;4.50;;;27.40;90.30;;;;;;5167735;27;20050;-50
2021/11/03 10:47:09;;;;;;;5.82;4.60;;;27.40;90.30;;;;;;5167573;27;20022;-51
2021/11/03 10:50:01;;;;;;;12.85;4.68;;;27.40;90.30;;;;;;5149508;27;20023;-48
2021/11/03 10:52:53;;;;;;;11.55;5.20;;;27.50;90.40;;;;;;5144954;27;20362;-49
2021/11/03 10:55:26;;;;;;;9.43;4.88;;;27.40;90.30;;;;;;5128240;27;20320;-45
2021/11/03 10:58:06;;;;;;;9.93;4.78;;;27.40;90.30;;;;;;5144699;27;20297;-43
2021/11/03 11:00:40;;;;;;;7.13;4.85;;;27.40;90.30;;;;;;5144721;27;20019;-45
2021/11/03 11:03:14;;;;;;;11.43;5.05;;;27.40;90.30;;;;;;5144476;27;20022;-47
2021/11/03 11:05:48;;;;;;;7.18;4.70;;;27.40;90.30;;;;;;5144849;27;20047;-50
2021/11/03 11:08:23;;;;;;;6.40;5.00;;;27.40;90.30;;;;;;5144777;27;20272;-49
2021/11/03 11:11:00;;;;;;;10.25;5.20;;;27.40;90.30;;;;;;5145005;27;20031;-49
2021/11/03 11:13:31;;;;;;;10.02;4.80;;;27.40;90.30;;;;;;5144214;27;20027;-51
2021/11/03 11:16:21;;;;;;;11.95;4.93;;;27.40;90.30;;;;;;5144585;27;20070;-50
2021/11/03 11:19:01;;;;;;;10.60;5.03;;;27.40;90.30;;;;;;5144400;27;20023;-48
2021/11/03 11:21:46;;;;;;;13.90;5.25;;;27.40;90.30;;;;;;5144869;27;20328;-49
2021/11/03 11:24:51;;;;;;;11.73;5.97;;;27.40;90.30;;;;;;5144369;27;20043;-49
2021/11/03 11:27:28;;;;;;;12.68;6.13;;;27.40;90.40;;;;;;5140555;27;20027;-47
2021/11/03 11:30:03;;;;;;;11.35;5.63;;;27.40;90.30;;;;;;5144240;27;20035;-46
2021/11/03 11:32:33;;;;;;;10.25;5.60;;;27.40;90.40;;;;;;5144242;27;20126;-49
2021/11/03 11:35:07;;;;;;;12.85;6.05;;;27.40;90.40;;;;;;5144416;27;20375;-49
2021/11/03 11:37:51;;;;;;;9.57;5.22;;;27.40;90.40;;;;;;5164521;27;20313;-53
2021/11/03 11:40:42;;;;;;;11.50;5.60;;;27.40;90.40;;;;;;5167050;27;20011;-53
2021/11/03 11:43:14;;;;;;;10.85;5.50;;;27.50;90.40;;;;;;5166214;27;20063;-52
2021/11/03 11:45:41;;;;;;;10.90;5.93;;;27.50;90.50;;;;;;5167156;27;20030;-51
2021/11/03 11:48:33;;;;;;;17.05;5.78;;;27.50;90.50;;;;;;5166538;27;20104;-46
2021/11/03 11:51:03;;;;;;;12.60;5.97;;;27.50;90.50;;;;;;5165899;27;20022;-47
2021/11/03 11:53:35;;;;;;;7.57;5.20;;;27.50;90.50;;;;;;5165773;27;20060;-44
2021/11/03 11:56:12;;;;;;;7.57;5.47;;;27.50;90.50;;;;;;5166467;27;20025;-45
2021/11/03 11:58:44;;;;;;;11.82;5.57;;;27.50;90.40;;;;;;5166098;27;20249;-52
2021/11/03 12:01:22;;;;;;;9.80;6.10;;;27.50;90.40;;;;;;5166334;27;20029;-48
2021/11/03 12:04:00;;;;;;;15.85;5.15;;;27.50;90.40;;;;;;5166625;27;20387;-45
2021/11/03 12:06:43;;;;;;;8.68;5.22;;;27.60;90.40;;;;;;5166194;27;20223;-46
2021/11/03 12:09:36;;;;;;;8.98;5.28;;;27.60;90.40;;;;;;5166361;27;20026;-48
2021/11/03 12:12:18;;;;;;;7.68;4.65;;;27.60;90.40;;;;;;5166207;27;20299;-52
2021/11/03 12:14:56;;;;;;;7.38;5.40;;;27.60;90.40;;;;;;5166197;27;20027;-47
2021/11/03 12:17:56;;;;;;;9.93;4.78;;;27.60;90.40;;;;;;5165921;27;20045;-47
2021/11/03 12:20:25;;;;;;;12.63;4.63;;;27.60;90.30;;;;;;5165984;27;20025;-45
2021/11/03 12:23:25;;;;;;;9.05;4.50;;;27.60;90.40;;;;;;5166006;27;20199;-48
2021/11/03 12:25:53;;;;;;;9.18;5.03;;;27.60;90.30;;;;;;5166084;27;20034;-52
2021/11/03 12:28:41;;;;;;;9.93;4.78;;;27.60;90.30;;;;;;5165508;27;20014;-46
2021/11/03 12:31:25;;;;;;;6.40;4.80;;;27.70;90.30;;;;;;5165571;27;20029;-47
2021/11/03 12:34:04;;;;;;;13.70;5.03;;;27.70;90.30;;;;;;5147147;27;20031;-44
2021/11/03 12:37:16;;;;;;;6.03;4.50;;;27.70;90.30;;;;;;5165570;27;20375;-45
2021/11/03 12:39:43;;;;;;;10.50;4.65;;;27.70;90.30;;;;;;5129465;27;20316;-45
2021/11/03 12:42:13;;;;;;;6.75;4.53;;;27.70;90.30;;;;;;5165677;27;20027;-52
2021/11/03 12:44:53;;;;;;;9.25;4.45;;;27.70;90.30;;;;;;5165707;27;20096;-45
2021/11/03 12:47:33;;;;;;;7.38;4.72;;;27.70;90.20;;;;;;5165667;27;20345;-51
2021/11/03 12:50:15;;;;;;;8.60;4.75;;;27.80;90.30;;;;;;5166170;27;20202;-46
2021/11/03 12:52:44;;;;;;;10.15;4.32;;;27.80;90.30;;;;;;5165649;27;20026;-47
2021/11/03 12:55:31;;;;;;;7.90;4.60;;;27.80;90.30;;;;;;5147194;27;20029;-49
2021/11/03 12:57:59;;;;;;;8.90;4.50;;;27.80;90.20;;;;;;5165315;27;20031;-48
2021/11/03 13:00:37;;;;;;;8.60;4.43;;;27.80;90.30;;;;;;5165995;27;20090;-47
2021/11/03 13:03:07;;;;;;;7.40;4.57;;;27.80;90.30;;;;;;5169668;27;20015;-45